sensor_id;sensor_type;location;lat;lon;timestamp;P1;durP1;ratioP1;P2;durP2;ratioP2
20697;SDS011;10508;50.956;4.640;2022-10-10T00:00:44;12.27;;;3.58;;
20697;SDS011;10508;50.956;4.640;2022-10-10T00:03:10;8.23;;;3.72;;
20697;SDS011;10508;50.956;4.640;2022-10-10T00:05:37;7.78;;;4.18;;
20697;SDS011;10508;50.956;4.640;2022-10-10T00:08:03;5.70;;;3.10;;
20697;SDS011;10508;50.956;4.640;2022-10-10T00:10:30;9.18;;;3.80;;
20697;SDS011;10508;50.956;4.640;2022-10-10T00:12:55;8.90;;;3.40;;
20697;SDS011;10508;50.956;4.640;2022-10-10T00:15:21;6.88;;;3.55;;
20697;SDS011;10508;50.956;4.640;2022-10-10T00:17:47;5.63;;;3.20;;
20697;SDS011;10508;50.956;4.640;2022-10-10T00:20:14;7.88;;;3.75;;
20697;SDS011;10508;50.956;4.640;2022-10-10T00:22:42;9.77;;;3.33;;
20697;SDS011;10508;50.956;4.640;2022-10-10T00:25:08;5.90;;;3.10;;
20697;SDS011;10508;50.956;4.640;2022-10-10T00:27:34;4.15;;;2.92;;
20697;SDS011;10508;50.956;4.640;2022-10-10T00:30:01;5.97;;;3.40;;
20697;SDS011;10508;50.956;4.640;2022-10-10T00:32:29;7.47;;;3.33;;
20697;SDS011;10508;50.956;4.640;2022-10-10T00:34:55;5.18;;;3.40;;
20697;SDS011;10508;50.956;4.640;2022-10-10T00:37:21;7.57;;;3.70;;
20697;SDS011;10508;50.956;4.640;2022-10-10T00:39:46;5.47;;;3.10;;
20697;SDS011;10508;50.956;4.640;2022-10-10T00:42:12;4.85;;;2.95;;
20697;SDS011;10508;50.956;4.640;2022-10-10T00:44:40;7.72;;;3.33;;
20697;SDS011;10508;50.956;4.640;2022-10-10T00:47:08;5.53;;;2.72;;
20697;SDS011;10508;50.956;4.640;2022-10-10T00:49:35;7.07;;;2.80;;
20697;SDS011;10508;50.956;4.640;2022-10-10T00:52:03;6.05;;;2.90;;
20697;SDS011;10508;50.956;4.640;2022-10-10T00:54:31;5.13;;;3.35;;
20697;SDS011;10508;50.956;4.640;2022-10-10T00:56:59;9.13;;;3.83;;
20697;SDS011;10508;50.956;4.640;2022-10-10T00:59:37;5.45;;;3.13;;
20697;SDS011;10508;50.956;4.640;2022-10-10T01:02:04;5.32;;;2.83;;
20697;SDS011;10508;50.956;4.640;2022-10-10T01:04:32;5.15;;;2.90;;
20697;SDS011;10508;50.956;4.640;2022-10-10T01:07:03;10.67;;;3.83;;
20697;SDS011;10508;50.956;4.640;2022-10-10T01:09:32;8.60;;;3.30;;
20697;SDS011;10508;50.956;4.640;2022-10-10T01:14:40;5.22;;;3.22;;
20697;SDS011;10508;50.956;4.640;2022-10-10T01:17:43;10.50;;;3.45;;
20697;SDS011;10508;50.956;4.640;2022-10-10T01:31:03;8.45;;;3.60;;
20697;SDS011;10508;50.956;4.640;2022-10-10T01:33:45;5.35;;;3.38;;
20697;SDS011;10508;50.956;4.640;2022-10-10T01:36:16;5.97;;;3.25;;
20697;SDS011;10508;50.956;4.640;2022-10-10T01:38:57;4.78;;;2.92;;
20697;SDS011;10508;50.956;4.640;2022-10-10T01:41:31;5.70;;;3.20;;
20697;SDS011;10508;50.956;4.640;2022-10-10T01:44:02;8.48;;;3.65;;
20697;SDS011;10508;50.956;4.640;2022-10-10T01:46:28;9.27;;;2.90;;
20697;SDS011;10508;50.956;4.640;2022-10-10T01:48:56;7.22;;;3.70;;
20697;SDS011;10508;50.956;4.640;2022-10-10T01:57:14;8.82;;;3.28;;
20697;SDS011;10508;50.956;4.640;2022-10-10T02:02:46;11.10;;;3.83;;
20697;SDS011;10508;50.956;4.640;2022-10-10T02:08:07;5.95;;;3.08;;
20697;SDS011;10508;50.956;4.640;2022-10-10T02:10:40;8.40;;;3.33;;
20697;SDS011;10508;50.956;4.640;2022-10-10T02:13:10;8.02;;;3.55;;
20697;SDS011;10508;50.956;4.640;2022-10-10T02:15:44;6.72;;;3.22;;
20697;SDS011;10508;50.956;4.640;2022-10-10T02:18:12;7.10;;;3.58;;
20697;SDS011;10508;50.956;4.640;2022-10-10T02:20:40;5.45;;;2.72;;
20697;SDS011;10508;50.956;4.640;2022-10-10T02:23:08;5.55;;;3.28;;
20697;SDS011;10508;50.956;4.640;2022-10-10T02:25:38;7.13;;;2.83;;
20697;SDS011;10508;50.956;4.640;2022-10-10T02:28:07;6.88;;;3.42;;
20697;SDS011;10508;50.956;4.640;2022-10-10T02:30:56;4.53;;;3.03;;
20697;SDS011;10508;50.956;4.640;2022-10-10T02:33:30;3.97;;;2.75;;
20697;SDS011;10508;50.956;4.640;2022-10-10T02:36:05;5.22;;;2.88;;
20697;SDS011;10508;50.956;4.640;2022-10-10T02:38:31;10.38;;;3.25;;
20697;SDS011;10508;50.956;4.640;2022-10-10T02:40:57;7.88;;;2.97;;
20697;SDS011;10508;50.956;4.640;2022-10-10T02:43:28;6.00;;;3.08;;
20697;SDS011;10508;50.956;4.640;2022-10-10T02:45:56;8.45;;;3.55;;
20697;SDS011;10508;50.956;4.640;2022-10-10T02:48:25;5.53;;;3.10;;
20697;SDS011;10508;50.956;4.640;2022-10-10T02:50:50;5.38;;;2.75;;
20697;SDS011;10508;50.956;4.640;2022-10-10T02:53:16;6.35;;;2.95;;
20697;SDS011;10508;50.956;4.640;2022-10-10T02:55:42;6.38;;;3.15;;
20697;SDS011;10508;50.956;4.640;2022-10-10T02:58:07;6.53;;;3.20;;
20697;SDS011;10508;50.956;4.640;2022-10-10T03:00:33;4.95;;;2.85;;
20697;SDS011;10508;50.956;4.640;2022-10-10T03:02:58;8.45;;;2.72;;
20697;SDS011;10508;50.956;4.640;2022-10-10T03:05:24;5.75;;;3.20;;
20697;SDS011;10508;50.956;4.640;2022-10-10T03:07:49;5.43;;;2.95;;
20697;SDS011;10508;50.956;4.640;2022-10-10T03:10:15;7.68;;;3.78;;
20697;SDS011;10508;50.956;4.640;2022-10-10T03:12:40;8.48;;;3.10;;
20697;SDS011;10508;50.956;4.640;2022-10-10T03:15:06;6.40;;;3.30;;
20697;SDS011;10508;50.956;4.640;2022-10-10T03:17:32;7.05;;;3.58;;
20697;SDS011;10508;50.956;4.640;2022-10-10T03:19:58;4.43;;;2.90;;
20697;SDS011;10508;50.956;4.640;2022-10-10T03:22:23;7.03;;;3.10;;
20697;SDS011;10508;50.956;4.640;2022-10-10T03:24:49;6.85;;;3.42;;
20697;SDS011;10508;50.956;4.640;2022-10-10T03:27:14;4.53;;;2.80;;
20697;SDS011;10508;50.956;4.640;2022-10-10T03:29:40;4.95;;;2.45;;
20697;SDS011;10508;50.956;4.640;2022-10-10T03:32:05;6.75;;;3.13;;
20697;SDS011;10508;50.956;4.640;2022-10-10T03:34:50;6.82;;;2.65;;
20697;SDS011;10508;50.956;4.640;2022-10-10T03:37:15;8.65;;;2.78;;
20697;SDS011;10508;50.956;4.640;2022-10-10T03:39:41;6.93;;;2.53;;
20697;SDS011;10508;50.956;4.640;2022-10-10T03:42:06;5.78;;;3.25;;
20697;SDS011;10508;50.956;4.640;2022-10-10T03:44:32;3.30;;;2.17;;
20697;SDS011;10508;50.956;4.640;2022-10-10T03:46:58;4.78;;;3.08;;
20697;SDS011;10508;50.956;4.640;2022-10-10T03:49:24;8.40;;;3.05;;
20697;SDS011;10508;50.956;4.640;2022-10-10T03:51:49;3.65;;;2.28;;
20697;SDS011;10508;50.956;4.640;2022-10-10T03:54:15;5.82;;;2.58;;
20697;SDS011;10508;50.956;4.640;2022-10-10T03:56:40;7.85;;;3.00;;
20697;SDS011;10508;50.956;4.640;2022-10-10T03:59:06;6.68;;;2.92;;
20697;SDS011;10508;50.956;4.640;2022-10-10T04:01:32;5.47;;;2.35;;
20697;SDS011;10508;50.956;4.640;2022-10-10T04:03:58;9.02;;;2.53;;
20697;SDS011;10508;50.956;4.640;2022-10-10T04:06:24;6.95;;;2.60;;
20697;SDS011;10508;50.956;4.640;2022-10-10T04:08:50;9.30;;;2.58;;
20697;SDS011;10508;50.956;4.640;2022-10-10T04:11:15;4.68;;;2.60;;
20697;SDS011;10508;50.956;4.640;2022-10-10T04:13:41;4.85;;;2.55;;
20697;SDS011;10508;50.956;4.640;2022-10-10T04:16:06;8.55;;;3.30;;
20697;SDS011;10508;50.956;4.640;2022-10-10T04:18:32;9.35;;;2.63;;
20697;SDS011;10508;50.956;4.640;2022-10-10T04:21:00;5.43;;;2.53;;
20697;SDS011;10508;50.956;4.640;2022-10-10T04:23:29;4.10;;;2.55;;
20697;SDS011;10508;50.956;4.640;2022-10-10T04:25:55;9.48;;;3.60;;
20697;SDS011;10508;50.956;4.640;2022-10-10T04:28:20;15.43;;;3.03;;
20697;SDS011;10508;50.956;4.640;2022-10-10T04:30:46;6.28;;;3.25;;
20697;SDS011;10508;50.956;4.640;2022-10-10T04:33:12;7.70;;;2.78;;
20697;SDS011;10508;50.956;4.640;2022-10-10T04:35:38;15.02;;;3.15;;
20697;SDS011;10508;50.956;4.640;2022-10-10T04:38:04;5.85;;;2.25;;
20697;SDS011;10508;50.956;4.640;2022-10-10T04:40:30;5.13;;;2.78;;
20697;SDS011;10508;50.956;4.640;2022-10-10T04:42:56;3.95;;;2.20;;
20697;SDS011;10508;50.956;4.640;2022-10-10T04:45:22;7.28;;;3.72;;
20697;SDS011;10508;50.956;4.640;2022-10-10T04:47:51;11.65;;;2.47;;
20697;SDS011;10508;50.956;4.640;2022-10-10T04:50:18;5.72;;;2.47;;
20697;SDS011;10508;50.956;4.640;2022-10-10T04:52:43;6.20;;;2.15;;
20697;SDS011;10508;50.956;4.640;2022-10-10T04:55:09;4.78;;;2.08;;
20697;SDS011;10508;50.956;4.640;2022-10-10T04:57:35;8.98;;;2.88;;
20697;SDS011;10508;50.956;4.640;2022-10-10T05:00:00;7.65;;;2.40;;
20697;SDS011;10508;50.956;4.640;2022-10-10T05:02:28;8.80;;;2.45;;
20697;SDS011;10508;50.956;4.640;2022-10-10T05:04:53;5.38;;;2.88;;
20697;SDS011;10508;50.956;4.640;2022-10-10T05:07:19;9.05;;;2.92;;
20697;SDS011;10508;50.956;4.640;2022-10-10T05:09:44;6.90;;;2.58;;
20697;SDS011;10508;50.956;4.640;2022-10-10T05:12:10;8.40;;;2.35;;
20697;SDS011;10508;50.956;4.640;2022-10-10T05:14:36;5.32;;;2.47;;
20697;SDS011;10508;50.956;4.640;2022-10-10T05:17:01;6.70;;;2.50;;
20697;SDS011;10508;50.956;4.640;2022-10-10T05:19:27;6.20;;;2.83;;
20697;SDS011;10508;50.956;4.640;2022-10-10T05:21:52;6.40;;;2.72;;
20697;SDS011;10508;50.956;4.640;2022-10-10T05:24:18;7.45;;;2.92;;
20697;SDS011;10508;50.956;4.640;2022-10-10T05:26:44;9.02;;;3.33;;
20697;SDS011;10508;50.956;4.640;2022-10-10T05:29:09;8.95;;;3.47;;
20697;SDS011;10508;50.956;4.640;2022-10-10T05:31:35;8.82;;;2.58;;
20697;SDS011;10508;50.956;4.640;2022-10-10T05:34:00;9.80;;;2.97;;
20697;SDS011;10508;50.956;4.640;2022-10-10T05:36:26;16.40;;;3.75;;
20697;SDS011;10508;50.956;4.640;2022-10-10T05:38:52;9.88;;;3.47;;
20697;SDS011;10508;50.956;4.640;2022-10-10T05:41:17;15.90;;;3.72;;
20697;SDS011;10508;50.956;4.640;2022-10-10T05:43:43;17.83;;;4.50;;
20697;SDS011;10508;50.956;4.640;2022-10-10T05:46:08;8.88;;;3.40;;
20697;SDS011;10508;50.956;4.640;2022-10-10T05:48:34;16.25;;;3.45;;
20697;SDS011;10508;50.956;4.640;2022-10-10T05:50:59;20.75;;;9.63;;
20697;SDS011;10508;50.956;4.640;2022-10-10T05:53:26;13.80;;;5.03;;
20697;SDS011;10508;50.956;4.640;2022-10-10T05:55:52;12.52;;;4.30;;
20697;SDS011;10508;50.956;4.640;2022-10-10T05:58:18;7.90;;;3.97;;
20697;SDS011;10508;50.956;4.640;2022-10-10T06:00:45;7.88;;;3.13;;
20697;SDS011;10508;50.956;4.640;2022-10-10T06:03:11;9.07;;;2.97;;
20697;SDS011;10508;50.956;4.640;2022-10-10T06:05:40;8.00;;;3.55;;
20697;SDS011;10508;50.956;4.640;2022-10-10T06:08:07;16.45;;;3.78;;
20697;SDS011;10508;50.956;4.640;2022-10-10T06:10:34;19.02;;;4.25;;
20697;SDS011;10508;50.956;4.640;2022-10-10T06:13:04;9.93;;;4.03;;
20697;SDS011;10508;50.956;4.640;2022-10-10T06:15:29;8.50;;;3.78;;
20697;SDS011;10508;50.956;4.640;2022-10-10T06:17:55;14.20;;;3.85;;
20697;SDS011;10508;50.956;4.640;2022-10-10T06:20:21;8.73;;;2.90;;
20697;SDS011;10508;50.956;4.640;2022-10-10T06:22:46;18.85;;;3.42;;
20697;SDS011;10508;50.956;4.640;2022-10-10T06:25:12;10.38;;;3.47;;
20697;SDS011;10508;50.956;4.640;2022-10-10T06:27:37;8.35;;;3.67;;
20697;SDS011;10508;50.956;4.640;2022-10-10T06:30:03;13.13;;;3.65;;
20697;SDS011;10508;50.956;4.640;2022-10-10T06:32:29;7.70;;;3.30;;
20697;SDS011;10508;50.956;4.640;2022-10-10T06:34:55;6.82;;;3.03;;
20697;SDS011;10508;50.956;4.640;2022-10-10T06:37:20;5.07;;;3.05;;
20697;SDS011;10508;50.956;4.640;2022-10-10T06:39:46;11.75;;;3.00;;
20697;SDS011;10508;50.956;4.640;2022-10-10T06:42:11;9.85;;;3.67;;
20697;SDS011;10508;50.956;4.640;2022-10-10T06:44:37;6.55;;;2.92;;
20697;SDS011;10508;50.956;4.640;2022-10-10T06:47:03;13.10;;;3.40;;
20697;SDS011;10508;50.956;4.640;2022-10-10T06:49:29;6.45;;;3.20;;
20697;SDS011;10508;50.956;4.640;2022-10-10T06:51:54;10.13;;;3.70;;
20697;SDS011;10508;50.956;4.640;2022-10-10T06:54:20;7.35;;;2.60;;
20697;SDS011;10508;50.956;4.640;2022-10-10T06:56:45;9.40;;;3.17;;
20697;SDS011;10508;50.956;4.640;2022-10-10T06:59:11;12.82;;;3.42;;
20697;SDS011;10508;50.956;4.640;2022-10-10T07:01:37;10.30;;;3.75;;
20697;SDS011;10508;50.956;4.640;2022-10-10T07:04:02;5.55;;;2.75;;
20697;SDS011;10508;50.956;4.640;2022-10-10T07:06:29;9.00;;;3.13;;
20697;SDS011;10508;50.956;4.640;2022-10-10T07:08:55;11.35;;;3.40;;
20697;SDS011;10508;50.956;4.640;2022-10-10T07:11:22;10.25;;;3.10;;
20697;SDS011;10508;50.956;4.640;2022-10-10T07:13:49;12.88;;;4.22;;
20697;SDS011;10508;50.956;4.640;2022-10-10T07:16:16;11.15;;;3.55;;
20697;SDS011;10508;50.956;4.640;2022-10-10T07:18:42;5.25;;;2.85;;
20697;SDS011;10508;50.956;4.640;2022-10-10T07:21:08;10.52;;;3.50;;
20697;SDS011;10508;50.956;4.640;2022-10-10T07:23:34;7.88;;;3.35;;
20697;SDS011;10508;50.956;4.640;2022-10-10T07:26:01;9.05;;;2.90;;
20697;SDS011;10508;50.956;4.640;2022-10-10T07:28:29;17.23;;;4.20;;
20697;SDS011;10508;50.956;4.640;2022-10-10T07:30:59;5.40;;;3.28;;
20697;SDS011;10508;50.956;4.640;2022-10-10T07:33:30;6.03;;;2.90;;
20697;SDS011;10508;50.956;4.640;2022-10-10T07:35:57;8.85;;;3.17;;
20697;SDS011;10508;50.956;4.640;2022-10-10T07:38:23;7.25;;;3.20;;
20697;SDS011;10508;50.956;4.640;2022-10-10T07:40:50;9.70;;;2.90;;
20697;SDS011;10508;50.956;4.640;2022-10-10T07:43:15;13.35;;;2.97;;
20697;SDS011;10508;50.956;4.640;2022-10-10T07:45:41;12.05;;;3.20;;
20697;SDS011;10508;50.956;4.640;2022-10-10T07:48:08;6.13;;;3.10;;
20697;SDS011;10508;50.956;4.640;2022-10-10T07:50:33;6.38;;;2.65;;
20697;SDS011;10508;50.956;4.640;2022-10-10T07:52:59;7.20;;;3.20;;
20697;SDS011;10508;50.956;4.640;2022-10-10T07:55:25;5.72;;;2.78;;
20697;SDS011;10508;50.956;4.640;2022-10-10T07:57:51;6.78;;;2.90;;
20697;SDS011;10508;50.956;4.640;2022-10-10T08:00:16;7.53;;;2.85;;
20697;SDS011;10508;50.956;4.640;2022-10-10T08:02:42;17.02;;;3.25;;
20697;SDS011;10508;50.956;4.640;2022-10-10T08:05:08;8.23;;;2.88;;
20697;SDS011;10508;50.956;4.640;2022-10-10T08:07:34;9.70;;;3.20;;
20697;SDS011;10508;50.956;4.640;2022-10-10T08:10:00;7.57;;;2.83;;
20697;SDS011;10508;50.956;4.640;2022-10-10T08:12:26;6.78;;;2.40;;
20697;SDS011;10508;50.956;4.640;2022-10-10T08:14:52;11.18;;;2.63;;
20697;SDS011;10508;50.956;4.640;2022-10-10T08:17:18;7.40;;;2.95;;
20697;SDS011;10508;50.956;4.640;2022-10-10T08:19:44;11.48;;;2.90;;
20697;SDS011;10508;50.956;4.640;2022-10-10T08:22:09;5.93;;;2.38;;
20697;SDS011;10508;50.956;4.640;2022-10-10T08:24:35;4.93;;;2.78;;
20697;SDS011;10508;50.956;4.640;2022-10-10T08:27:00;4.15;;;2.17;;
20697;SDS011;10508;50.956;4.640;2022-10-10T08:29:26;8.75;;;2.65;;
20697;SDS011;10508;50.956;4.640;2022-10-10T08:31:52;7.53;;;2.65;;
20697;SDS011;10508;50.956;4.640;2022-10-10T08:34:17;14.73;;;2.47;;
20697;SDS011;10508;50.956;4.640;2022-10-10T08:36:43;12.57;;;2.88;;
20697;SDS011;10508;50.956;4.640;2022-10-10T08:39:08;3.22;;;1.92;;
20697;SDS011;10508;50.956;4.640;2022-10-10T08:44:01;21.70;;;3.45;;
20697;SDS011;10508;50.956;4.640;2022-10-10T08:46:41;4.00;;;2.08;;
20697;SDS011;10508;50.956;4.640;2022-10-10T08:49:22;6.05;;;2.15;;
20697;SDS011;10508;50.956;4.640;2022-10-10T08:51:57;8.30;;;2.42;;
20697;SDS011;10508;50.956;4.640;2022-10-10T08:54:30;8.02;;;2.45;;
20697;SDS011;10508;50.956;4.640;2022-10-10T08:56:58;4.85;;;2.10;;
20697;SDS011;10508;50.956;4.640;2022-10-10T08:59:37;8.35;;;2.20;;
20697;SDS011;10508;50.956;4.640;2022-10-10T09:02:18;5.53;;;2.30;;
20697;SDS011;10508;50.956;4.640;2022-10-10T09:04:59;4.90;;;1.95;;
20697;SDS011;10508;50.956;4.640;2022-10-10T09:10:25;6.45;;;2.20;;
20697;SDS011;10508;50.956;4.640;2022-10-10T09:13:20;11.15;;;2.20;;
20697;SDS011;10508;50.956;4.640;2022-10-10T09:15:53;9.48;;;1.92;;
20697;SDS011;10508;50.956;4.640;2022-10-10T09:18:45;6.93;;;2.03;;
20697;SDS011;10508;50.956;4.640;2022-10-10T09:21:48;7.90;;;2.20;;
20697;SDS011;10508;50.956;4.640;2022-10-10T09:24:25;5.90;;;2.17;;
20697;SDS011;10508;50.956;4.640;2022-10-10T09:27:05;6.75;;;1.70;;
20697;SDS011;10508;50.956;4.640;2022-10-10T09:32:08;6.38;;;2.17;;
20697;SDS011;10508;50.956;4.640;2022-10-10T09:34:42;4.10;;;2.05;;
20697;SDS011;10508;50.956;4.640;2022-10-10T09:37:16;8.48;;;2.05;;
20697;SDS011;10508;50.956;4.640;2022-10-10T09:39:52;6.70;;;1.80;;
20697;SDS011;10508;50.956;4.640;2022-10-10T09:42:32;13.02;;;2.10;;
20697;SDS011;10508;50.956;4.640;2022-10-10T09:45:01;6.13;;;1.80;;
20697;SDS011;10508;50.956;4.640;2022-10-10T09:47:27;6.20;;;1.42;;
20697;SDS011;10508;50.956;4.640;2022-10-10T09:49:53;5.90;;;2.20;;
20697;SDS011;10508;50.956;4.640;2022-10-10T09:55:51;9.50;;;2.47;;
20697;SDS011;10508;50.956;4.640;2022-10-10T10:01:10;5.30;;;1.80;;
20697;SDS011;10508;50.956;4.640;2022-10-10T10:03:37;4.95;;;1.85;;
20697;SDS011;10508;50.956;4.640;2022-10-10T10:06:02;5.78;;;2.03;;
20697;SDS011;10508;50.956;4.640;2022-10-10T10:08:32;6.50;;;1.50;;
20697;SDS011;10508;50.956;4.640;2022-10-10T10:11:00;7.45;;;1.70;;
20697;SDS011;10508;50.956;4.640;2022-10-10T10:16:06;3.88;;;1.70;;
20697;SDS011;10508;50.956;4.640;2022-10-10T10:18:42;5.43;;;1.90;;
20697;SDS011;10508;50.956;4.640;2022-10-10T10:21:11;6.25;;;2.05;;
20697;SDS011;10508;50.956;4.640;2022-10-10T10:23:41;7.32;;;1.75;;
20697;SDS011;10508;50.956;4.640;2022-10-10T10:26:17;10.02;;;2.45;;
20697;SDS011;10508;50.956;4.640;2022-10-10T10:28:44;6.35;;;1.98;;
20697;SDS011;10508;50.956;4.640;2022-10-10T10:34:20;5.47;;;1.95;;
20697;SDS011;10508;50.956;4.640;2022-10-10T10:37:10;9.20;;;1.90;;
20697;SDS011;10508;50.956;4.640;2022-10-10T10:40:27;5.85;;;1.67;;
20697;SDS011;10508;50.956;4.640;2022-10-10T10:48:39;5.70;;;1.60;;
20697;SDS011;10508;50.956;4.640;2022-10-10T10:58:52;4.97;;;1.77;;
20697;SDS011;10508;50.956;4.640;2022-10-10T11:01:42;6.07;;;1.80;;
20697;SDS011;10508;50.956;4.640;2022-10-10T11:04:16;8.57;;;1.85;;
20697;SDS011;10508;50.956;4.640;2022-10-10T11:07:09;8.98;;;2.10;;
20697;SDS011;10508;50.956;4.640;2022-10-10T11:15:12;12.02;;;1.98;;
20697;SDS011;10508;50.956;4.640;2022-10-10T11:17:52;10.77;;;3.28;;
20697;SDS011;10508;50.956;4.640;2022-10-10T11:20:40;13.43;;;2.58;;
20697;SDS011;10508;50.956;4.640;2022-10-10T11:23:18;8.88;;;2.70;;
20697;SDS011;10508;50.956;4.640;2022-10-10T11:25:54;13.65;;;2.35;;
20697;SDS011;10508;50.956;4.640;2022-10-10T11:29:08;14.80;;;1.73;;
20697;SDS011;10508;50.956;4.640;2022-10-10T11:31:18;8.70;;;2.10;;
20697;SDS011;10508;50.956;4.640;2022-10-10T11:33:50;9.27;;;1.73;;
20697;SDS011;10508;50.956;4.640;2022-10-10T11:36:19;8.88;;;1.92;;
20697;SDS011;10508;50.956;4.640;2022-10-10T11:38:56;5.65;;;1.83;;
20697;SDS011;10508;50.956;4.640;2022-10-10T11:41:33;5.63;;;1.90;;
20697;SDS011;10508;50.956;4.640;2022-10-10T11:44:11;6.45;;;1.77;;
20697;SDS011;10508;50.956;4.640;2022-10-10T11:46:41;7.57;;;1.90;;
20697;SDS011;10508;50.956;4.640;2022-10-10T11:49:35;20.35;;;2.15;;
20697;SDS011;10508;50.956;4.640;2022-10-10T11:55:14;3.33;;;1.65;;
20697;SDS011;10508;50.956;4.640;2022-10-10T11:58:16;4.95;;;1.92;;
20697;SDS011;10508;50.956;4.640;2022-10-10T12:00:52;7.90;;;1.60;;
20697;SDS011;10508;50.956;4.640;2022-10-10T12:03:23;7.22;;;2.40;;
20697;SDS011;10508;50.956;4.640;2022-10-10T12:05:51;11.05;;;1.50;;
20697;SDS011;10508;50.956;4.640;2022-10-10T12:08:43;5.78;;;1.63;;
20697;SDS011;10508;50.956;4.640;2022-10-10T12:11:37;5.90;;;1.70;;
20697;SDS011;10508;50.956;4.640;2022-10-10T12:14:07;3.50;;;1.90;;
20697;SDS011;10508;50.956;4.640;2022-10-10T12:16:37;11.10;;;1.40;;
20697;SDS011;10508;50.956;4.640;2022-10-10T12:19:07;5.75;;;1.38;;
20697;SDS011;10508;50.956;4.640;2022-10-10T12:24:24;3.85;;;1.27;;
20697;SDS011;10508;50.956;4.640;2022-10-10T12:34:40;7.35;;;1.85;;
20697;SDS011;10508;50.956;4.640;2022-10-10T12:37:19;2.65;;;1.38;;
20697;SDS011;10508;50.956;4.640;2022-10-10T12:42:39;5.30;;;1.92;;
20697;SDS011;10508;50.956;4.640;2022-10-10T12:47:53;9.30;;;2.30;;
20697;SDS011;10508;50.956;4.640;2022-10-10T12:50:30;4.82;;;2.00;;
20697;SDS011;10508;50.956;4.640;2022-10-10T12:53:02;3.53;;;1.70;;
20697;SDS011;10508;50.956;4.640;2022-10-10T12:55:31;5.88;;;2.45;;
20697;SDS011;10508;50.956;4.640;2022-10-10T12:58:07;6.55;;;1.50;;
20697;SDS011;10508;50.956;4.640;2022-10-10T13:00:40;4.40;;;1.70;;
20697;SDS011;10508;50.956;4.640;2022-10-10T13:05:45;10.35;;;2.30;;
20697;SDS011;10508;50.956;4.640;2022-10-10T13:08:14;6.35;;;1.80;;
20697;SDS011;10508;50.956;4.640;2022-10-10T13:10:42;7.20;;;1.98;;
20697;SDS011;10508;50.956;4.640;2022-10-10T13:13:29;7.55;;;2.17;;
20697;SDS011;10508;50.956;4.640;2022-10-10T13:15:56;4.88;;;1.80;;
20697;SDS011;10508;50.956;4.640;2022-10-10T13:20:58;6.78;;;2.17;;
20697;SDS011;10508;50.956;4.640;2022-10-10T13:23:25;7.63;;;2.10;;
20697;SDS011;10508;50.956;4.640;2022-10-10T13:25:51;8.75;;;2.30;;
20697;SDS011;10508;50.956;4.640;2022-10-10T13:28:18;3.90;;;1.70;;
20697;SDS011;10508;50.956;4.640;2022-10-10T13:30:45;4.22;;;2.08;;
20697;SDS011;10508;50.956;4.640;2022-10-10T13:33:16;7.28;;;2.20;;
20697;SDS011;10508;50.956;4.640;2022-10-10T13:35:46;11.40;;;3.03;;
20697;SDS011;10508;50.956;4.640;2022-10-10T13:38:15;8.27;;;2.10;;
20697;SDS011;10508;50.956;4.640;2022-10-10T13:40:44;6.72;;;2.22;;
20697;SDS011;10508;50.956;4.640;2022-10-10T13:43:14;4.95;;;2.05;;
20697;SDS011;10508;50.956;4.640;2022-10-10T13:45:58;7.07;;;2.88;;
20697;SDS011;10508;50.956;4.640;2022-10-10T13:58:29;11.98;;;3.03;;
20697;SDS011;10508;50.956;4.640;2022-10-10T14:00:57;9.60;;;3.17;;
20697;SDS011;10508;50.956;4.640;2022-10-10T14:03:26;7.45;;;2.85;;
20697;SDS011;10508;50.956;4.640;2022-10-10T14:05:52;10.98;;;2.40;;
20697;SDS011;10508;50.956;4.640;2022-10-10T14:08:20;7.13;;;2.53;;
20697;SDS011;10508;50.956;4.640;2022-10-10T14:13:25;5.25;;;2.20;;
20697;SDS011;10508;50.956;4.640;2022-10-10T14:15:53;8.60;;;3.28;;
20697;SDS011;10508;50.956;4.640;2022-10-10T14:18:45;8.98;;;3.45;;
20697;SDS011;10508;50.956;4.640;2022-10-10T14:21:11;10.90;;;3.45;;
20697;SDS011;10508;50.956;4.640;2022-10-10T14:23:37;15.13;;;4.63;;
20697;SDS011;10508;50.956;4.640;2022-10-10T14:26:04;10.70;;;5.07;;
20697;SDS011;10508;50.956;4.640;2022-10-10T14:28:32;11.27;;;4.43;;
20697;SDS011;10508;50.956;4.640;2022-10-10T14:30:59;15.80;;;4.65;;
20697;SDS011;10508;50.956;4.640;2022-10-10T14:33:25;8.88;;;5.00;;
20697;SDS011;10508;50.956;4.640;2022-10-10T14:35:51;8.32;;;4.50;;
20697;SDS011;10508;50.956;4.640;2022-10-10T14:38:18;6.63;;;4.32;;
20697;SDS011;10508;50.956;4.640;2022-10-10T14:40:45;11.82;;;5.10;;
20697;SDS011;10508;50.956;4.640;2022-10-10T14:43:11;11.82;;;5.40;;
20697;SDS011;10508;50.956;4.640;2022-10-10T14:45:37;11.93;;;6.05;;
20697;SDS011;10508;50.956;4.640;2022-10-10T14:48:03;7.60;;;4.32;;
20697;SDS011;10508;50.956;4.640;2022-10-10T14:50:36;16.00;;;5.35;;
20697;SDS011;10508;50.956;4.640;2022-10-10T14:53:04;12.00;;;4.55;;
20697;SDS011;10508;50.956;4.640;2022-10-10T14:55:29;7.65;;;4.65;;
20697;SDS011;10508;50.956;4.640;2022-10-10T14:57:55;8.27;;;4.20;;
20697;SDS011;10508;50.956;4.640;2022-10-10T15:00:22;12.70;;;4.50;;
20697;SDS011;10508;50.956;4.640;2022-10-10T15:02:49;5.32;;;3.22;;
20697;SDS011;10508;50.956;4.640;2022-10-10T15:05:15;2.88;;;1.98;;
20697;SDS011;10508;50.956;4.640;2022-10-10T15:07:41;5.78;;;2.22;;
20697;SDS011;10508;50.956;4.640;2022-10-10T15:10:07;2.38;;;1.60;;
20697;SDS011;10508;50.956;4.640;2022-10-10T15:12:38;2.60;;;1.52;;
20697;SDS011;10508;50.956;4.640;2022-10-10T15:15:05;4.38;;;1.52;;
20697;SDS011;10508;50.956;4.640;2022-10-10T15:17:32;5.72;;;1.30;;
20697;SDS011;10508;50.956;4.640;2022-10-10T15:19:58;3.70;;;1.73;;
20697;SDS011;10508;50.956;4.640;2022-10-10T15:22:24;2.92;;;1.42;;
20697;SDS011;10508;50.956;4.640;2022-10-10T15:24:51;5.88;;;1.48;;
20697;SDS011;10508;50.956;4.640;2022-10-10T15:27:17;2.42;;;1.27;;
20697;SDS011;10508;50.956;4.640;2022-10-10T15:29:43;1.92;;;1.40;;
20697;SDS011;10508;50.956;4.640;2022-10-10T15:32:08;3.72;;;1.67;;
20697;SDS011;10508;50.956;4.640;2022-10-10T15:34:34;2.67;;;1.20;;
20697;SDS011;10508;50.956;4.640;2022-10-10T15:37:00;4.53;;;1.48;;
20697;SDS011;10508;50.956;4.640;2022-10-10T15:39:25;3.50;;;1.45;;
20697;SDS011;10508;50.956;4.640;2022-10-10T15:41:52;2.17;;;1.52;;
20697;SDS011;10508;50.956;4.640;2022-10-10T15:44:18;5.18;;;1.80;;
20697;SDS011;10508;50.956;4.640;2022-10-10T15:46:44;3.88;;;1.40;;
20697;SDS011;10508;50.956;4.640;2022-10-10T15:49:10;5.82;;;1.50;;
20697;SDS011;10508;50.956;4.640;2022-10-10T15:51:37;5.20;;;1.30;;
20697;SDS011;10508;50.956;4.640;2022-10-10T15:54:07;4.78;;;1.40;;
20697;SDS011;10508;50.956;4.640;2022-10-10T15:56:33;2.17;;;1.05;;
20697;SDS011;10508;50.956;4.640;2022-10-10T15:58:59;2.05;;;0.60;;
20697;SDS011;10508;50.956;4.640;2022-10-10T16:01:26;5.95;;;0.90;;
20697;SDS011;10508;50.956;4.640;2022-10-10T16:03:53;0.65;;;0.40;;
20697;SDS011;10508;50.956;4.640;2022-10-10T16:06:19;2.83;;;0.70;;
20697;SDS011;10508;50.956;4.640;2022-10-10T16:08:46;4.53;;;1.30;;
20697;SDS011;10508;50.956;4.640;2022-10-10T16:11:16;4.35;;;0.70;;
20697;SDS011;10508;50.956;4.640;2022-10-10T16:13:47;3.40;;;0.60;;
20697;SDS011;10508;50.956;4.640;2022-10-10T16:16:14;6.22;;;0.73;;
20697;SDS011;10508;50.956;4.640;2022-10-10T16:18:40;2.42;;;0.60;;
20697;SDS011;10508;50.956;4.640;2022-10-10T16:21:07;6.72;;;0.82;;
20697;SDS011;10508;50.956;4.640;2022-10-10T16:23:35;5.78;;;0.63;;
20697;SDS011;10508;50.956;4.640;2022-10-10T16:26:09;4.70;;;0.60;;
20697;SDS011;10508;50.956;4.640;2022-10-10T16:28:38;2.20;;;0.65;;
20697;SDS011;10508;50.956;4.640;2022-10-10T16:31:04;3.72;;;0.60;;
20697;SDS011;10508;50.956;4.640;2022-10-10T16:33:31;6.05;;;0.93;;
20697;SDS011;10508;50.956;4.640;2022-10-10T16:35:58;3.92;;;1.00;;
20697;SDS011;10508;50.956;4.640;2022-10-10T16:38:24;4.57;;;0.60;;